createdAt,value
2022-08-24T00:02:02.243Z,20.15
2022-08-24T00:04:32.548Z,20.12
2022-08-24T00:07:02.408Z,20.08
2022-08-24T00:09:33.236Z,20.05
2022-08-24T00:12:02.930Z,20.02
2022-08-24T00:14:32.484Z,19.98
2022-08-24T00:17:01.735Z,19.96
2022-08-24T00:19:30.232Z,19.92
2022-08-24T00:22:00.269Z,19.90
2022-08-24T00:24:28.740Z,19.85
2022-08-24T00:26:57.399Z,19.83
2022-08-24T00:29:26.315Z,19.81
2022-08-24T00:31:54.860Z,19.79
2022-08-24T00:34:23.227Z,19.76
2022-08-24T00:36:51.648Z,19.74
2022-08-24T00:39:20.670Z,19.71
2022-08-24T00:41:51.608Z,19.69
2022-08-24T00:44:21.344Z,19.67
2022-08-24T00:47:11.037Z,19.66
2022-08-24T00:49:54.766Z,19.62
2022-08-24T00:52:29.758Z,19.58
2022-08-24T00:55:10.444Z,19.56
2022-08-24T00:57:42.482Z,19.54
2022-08-24T01:00:16.897Z,19.51
2022-08-24T01:02:48.998Z,19.48
2022-08-24T01:05:19.209Z,19.47
2022-08-24T01:07:50.957Z,19.44
2022-08-24T01:10:25.736Z,19.44
2022-08-24T01:13:00.348Z,19.43
2022-08-24T01:15:33.020Z,19.39
2022-08-24T01:18:20.971Z,19.36
2022-08-24T01:20:58.065Z,19.33
2022-08-24T01:23:45.077Z,19.29
2022-08-24T01:26:40.090Z,19.25
2022-08-24T01:29:13.451Z,19.24
2022-08-24T01:31:42.643Z,19.23
2022-08-24T01:34:13.119Z,19.21
2022-08-24T01:36:49.170Z,19.18
2022-08-24T01:39:25.385Z,19.15
2022-08-24T01:41:54.237Z,19.14
2022-08-24T01:44:25.176Z,19.13
2022-08-24T01:46:55.752Z,19.12
2022-08-24T01:49:26.340Z,19.08
2022-08-24T01:51:55.323Z,19.07
2022-08-24T01:54:24.608Z,19.04
2022-08-24T01:56:53.350Z,19.04
2022-08-24T01:59:22.541Z,19.02
2022-08-24T02:02:03.276Z,19.02
2022-08-24T02:04:36.137Z,19.01
2022-08-24T02:07:04.690Z,18.99
2022-08-24T02:09:36.739Z,18.97
2022-08-24T02:12:07.587Z,18.96
2022-08-24T02:14:37.345Z,18.95
2022-08-24T02:17:08.213Z,18.96
2022-08-24T02:19:37.805Z,18.98
2022-08-24T02:22:10.534Z,18.97
2022-08-24T02:24:40.439Z,18.96
2022-08-24T02:27:08.972Z,18.95
2022-08-24T02:29:39.186Z,18.90
2022-08-24T02:32:07.572Z,18.88
2022-08-24T02:34:36.511Z,18.86
2022-08-24T02:37:05.425Z,18.84
2022-08-24T02:39:34.069Z,18.84
2022-08-24T02:42:06.833Z,18.82
2022-08-24T02:44:35.536Z,18.80
2022-08-24T02:47:04.312Z,18.77
2022-08-24T02:49:35.543Z,18.75
2022-08-24T02:52:04.921Z,18.73
2022-08-24T02:54:35.190Z,18.70
2022-08-24T02:57:03.815Z,18.70
2022-08-24T02:59:32.362Z,18.69
2022-08-24T03:02:00.697Z,18.68
2022-08-24T03:04:29.278Z,18.68
2022-08-24T03:06:59.573Z,18.67
2022-08-24T03:09:28.931Z,18.65
2022-08-24T03:11:59.138Z,18.63
2022-08-24T03:14:27.525Z,18.61
2022-08-24T03:16:56.429Z,18.61
2022-08-24T03:19:24.839Z,18.60
2022-08-24T03:21:54.224Z,18.59
2022-08-24T03:24:23.438Z,18.57
2022-08-24T03:26:52.020Z,18.56
2022-08-24T03:29:20.440Z,18.55
2022-08-24T03:31:54.765Z,18.55
2022-08-24T03:34:25.121Z,18.54
2022-08-24T03:36:53.518Z,18.53
2022-08-24T03:39:21.874Z,18.54
2022-08-24T03:41:54.322Z,18.55
2022-08-24T03:44:25.190Z,18.55
2022-08-24T03:46:55.483Z,18.56
2022-08-24T03:49:26.214Z,18.55
2022-08-24T03:51:54.733Z,18.54
2022-08-24T03:54:25.312Z,18.53
2022-08-24T03:56:53.855Z,18.51
2022-08-24T03:59:22.244Z,18.52
2022-08-24T04:01:56.152Z,18.50
2022-08-24T04:04:26.693Z,18.48
2022-08-24T04:06:55.033Z,18.47
2022-08-24T04:09:24.696Z,18.47
2022-08-24T04:11:53.570Z,18.46
2022-08-24T04:14:27.710Z,18.43
2022-08-24T04:17:08.778Z,18.40
2022-08-24T04:19:57.867Z,18.39
2022-08-24T04:22:36.386Z,18.37
2022-08-24T04:25:08.917Z,18.36
2022-08-24T04:27:40.795Z,18.36
2022-08-24T04:30:14.220Z,18.34
2022-08-24T04:33:02.097Z,18.33
2022-08-24T04:35:31.097Z,18.30
2022-08-24T04:37:59.580Z,18.31
2022-08-24T04:40:27.998Z,18.30
2022-08-24T04:42:59.120Z,18.30
2022-08-24T04:45:29.595Z,18.30
2022-08-24T04:47:58.385Z,18.32
2022-08-24T04:50:28.429Z,18.30
2022-08-24T04:52:58.573Z,18.30
2022-08-24T04:55:27.672Z,18.31
2022-08-24T04:57:56.159Z,18.33
2022-08-24T05:00:24.802Z,18.33
2022-08-24T05:02:57.369Z,18.34
2022-08-24T05:05:28.829Z,18.37
2022-08-24T05:07:57.399Z,18.39
2022-08-24T05:10:26.733Z,18.43
2022-08-24T05:13:02.358Z,18.46
2022-08-24T05:15:31.613Z,18.50
2022-08-24T05:18:00.983Z,18.55
2022-08-24T05:20:29.381Z,18.60
2022-08-24T05:23:03.805Z,18.63
2022-08-24T05:25:34.015Z,18.66
2022-08-24T05:28:02.471Z,18.70
2022-08-24T05:30:31.073Z,18.74
2022-08-24T05:33:00.114Z,18.78
2022-08-24T05:35:28.707Z,18.82
2022-08-24T05:37:59.704Z,18.87
2022-08-24T05:40:37.643Z,18.95
2022-08-24T05:43:06.553Z,19.01
2022-08-24T05:45:34.980Z,19.07
2022-08-24T05:48:03.904Z,19.13
2022-08-24T05:50:57.865Z,19.20
2022-08-24T05:53:30.235Z,19.27
2022-08-24T05:56:07.941Z,19.34
2022-08-24T05:58:39.492Z,19.40
2022-08-24T06:01:11.530Z,19.48
2022-08-24T06:03:40.506Z,19.57
2022-08-24T06:06:11.577Z,19.69
2022-08-24T06:08:42.929Z,19.85
2022-08-24T06:11:29.875Z,20.07
2022-08-24T06:14:02.739Z,20.19
2022-08-24T06:16:39.986Z,20.32
2022-08-24T06:19:11.745Z,20.40
2022-08-24T06:21:41.182Z,20.50
2022-08-24T06:24:09.881Z,20.61
2022-08-24T06:26:57.169Z,20.70
2022-08-24T06:29:25.603Z,20.81
2022-08-24T06:31:58.553Z,20.92
2022-08-24T06:34:28.974Z,21.00
2022-08-24T06:36:57.879Z,21.10
2022-08-24T06:39:28.878Z,21.16
2022-08-24T06:41:58.355Z,21.22
2022-08-24T06:44:34.339Z,21.28
2022-08-24T06:47:13.335Z,21.33
2022-08-24T06:49:42.175Z,21.40
2022-08-24T06:52:13.506Z,21.49
2022-08-24T06:54:44.132Z,21.66
2022-08-24T06:57:12.528Z,21.90
2022-08-24T06:59:43.182Z,22.11
2022-08-24T07:02:15.943Z,22.29
2022-08-24T07:04:46.614Z,22.60
2022-08-24T07:07:33.965Z,22.86
2022-08-24T07:10:07.288Z,22.96
2022-08-24T07:12:36.905Z,23.06
2022-08-24T07:15:11.495Z,23.13
2022-08-24T07:17:46.465Z,23.19
2022-08-24T07:20:15.488Z,23.26
2022-08-24T07:23:12.643Z,23.32
2022-08-24T07:25:48.925Z,23.39
2022-08-24T07:28:31.841Z,23.43
2022-08-24T07:31:02.179Z,23.47
2022-08-24T07:33:36.147Z,23.57
2022-08-24T07:36:05.143Z,23.60
2022-08-24T07:38:34.622Z,23.64
2022-08-24T07:41:33.720Z,23.66
2022-08-24T07:43:52.751Z,23.71
2022-08-24T07:46:22.829Z,23.75
2022-08-24T07:49:05.130Z,23.79
2022-08-24T07:51:44.806Z,23.81
2022-08-24T07:54:15.876Z,23.88
2022-08-24T07:56:45.449Z,23.90
2022-08-24T07:59:14.633Z,23.89
2022-08-24T08:01:43.220Z,23.93
2022-08-24T08:04:14.272Z,24.01
2022-08-24T08:06:43.111Z,24.06
2022-08-24T08:09:11.900Z,24.09
2022-08-24T08:11:41.884Z,24.16
2022-08-24T08:14:10.781Z,24.15
2022-08-24T08:16:39.231Z,24.23
2022-08-24T08:19:11.199Z,24.30
2022-08-24T08:22:10.409Z,24.36
2022-08-24T08:24:58.665Z,24.42
2022-08-24T08:27:28.080Z,24.51
2022-08-24T08:29:57.335Z,24.60
2022-08-24T08:32:26.032Z,24.75
2022-08-24T08:35:00.102Z,24.85
2022-08-24T08:37:31.307Z,25.01
2022-08-24T08:40:00.543Z,25.15
2022-08-24T08:42:56.366Z,25.28
2022-08-24T08:46:06.706Z,25.41
2022-08-24T08:49:25.036Z,25.57
2022-08-24T08:52:27.294Z,25.65
2022-08-24T08:55:14.563Z,25.76
2022-08-24T08:58:03.920Z,25.99
2022-08-24T09:01:12.107Z,26.23
2022-08-24T09:04:05.537Z,26.39
2022-08-24T09:07:23.105Z,26.42
2022-08-24T09:10:28.904Z,26.43
2022-08-24T09:13:09.235Z,26.40
2022-08-24T09:16:19.102Z,26.36
2022-08-24T09:19:10.529Z,26.32
2022-08-24T09:22:00.702Z,26.26
2022-08-24T09:24:40.857Z,26.15
2022-08-24T09:27:43.436Z,26.19
2022-08-24T09:30:20.831Z,26.28
2022-08-24T09:33:04.533Z,26.23
2022-08-24T09:35:48.934Z,26.28
2022-08-24T09:38:43.529Z,26.24
2022-08-24T09:41:59.002Z,26.17
2022-08-24T09:44:39.886Z,26.04
2022-08-24T09:47:29.933Z,26.03
2022-08-24T09:50:01.196Z,26.04
2022-08-24T09:52:45.811Z,26.00
2022-08-24T09:55:33.291Z,25.94
2022-08-24T09:58:45.148Z,25.97
2022-08-24T10:01:36.540Z,26.05
2022-08-24T10:04:12.514Z,26.01
2022-08-24T10:06:51.254Z,25.98
2022-08-24T10:09:43.233Z,26.03
2022-08-24T10:12:47.355Z,26.04
2022-08-24T10:15:36.055Z,26.01
2022-08-24T10:18:22.790Z,26.04
2022-08-24T10:21:03.566Z,26.16
2022-08-24T10:23:51.689Z,26.27
2022-08-24T10:26:57.704Z,26.38
2022-08-24T10:29:29.034Z,26.45
2022-08-24T10:32:34.742Z,26.50
2022-08-24T10:35:14.090Z,26.43
2022-08-24T10:38:42.260Z,26.43
2022-08-24T10:41:23.768Z,26.51
2022-08-24T10:44:12.816Z,26.62
2022-08-24T10:47:06.729Z,26.76
2022-08-24T10:49:37.738Z,26.81
2022-08-24T10:52:43.693Z,26.92
2022-08-24T10:55:21.447Z,26.96
2022-08-24T10:57:56.832Z,26.99
2022-08-24T11:00:30.953Z,27.04
2022-08-24T11:03:21.354Z,27.12
2022-08-24T11:05:58.002Z,27.20
2022-08-24T11:08:33.460Z,27.32
2022-08-24T11:11:10.031Z,27.35
2022-08-24T11:13:51.131Z,27.37
2022-08-24T11:16:42.886Z,27.43
2022-08-24T11:19:14.743Z,27.40
2022-08-24T11:21:43.967Z,27.37
2022-08-24T11:24:38.582Z,27.38
2022-08-24T11:27:30.554Z,27.41
2022-08-24T11:30:03.231Z,27.49
2022-08-24T11:32:43.348Z,27.58
2022-08-24T11:35:14.985Z,27.64
2022-08-24T11:38:23.976Z,27.63
2022-08-24T11:41:01.059Z,27.69
2022-08-24T11:43:48.012Z,27.72
2022-08-24T11:46:50.526Z,27.75
2022-08-24T11:49:27.501Z,27.65
2022-08-24T11:52:24.719Z,27.66
2022-08-24T11:55:09.140Z,27.66
2022-08-24T11:58:03.494Z,27.69
2022-08-24T12:00:59.268Z,27.69
2022-08-24T12:03:39.513Z,27.66
2022-08-24T12:06:40.787Z,27.68
2022-08-24T12:09:46.704Z,27.69
2022-08-24T12:12:46.706Z,27.72
2022-08-24T12:15:17.801Z,27.86
2022-08-24T12:18:05.296Z,27.96
2022-08-24T12:20:48.270Z,28.05
2022-08-24T12:23:19.787Z,28.03
2022-08-24T12:26:03.095Z,27.99
2022-08-24T12:28:46.223Z,27.92
2022-08-24T12:31:39.482Z,27.87
2022-08-24T12:34:20.427Z,27.90
2022-08-24T12:36:51.878Z,27.95
2022-08-24T12:39:28.678Z,27.98
2022-08-24T12:42:23.753Z,28.00
2022-08-24T12:45:13.496Z,28.05
2022-08-24T12:48:17.471Z,28.06
2022-08-24T12:51:01.626Z,28.04
2022-08-24T12:53:51.405Z,28.05
2022-08-24T12:56:45.357Z,27.95
2022-08-24T12:59:25.820Z,27.76
2022-08-24T13:02:06.037Z,27.67
2022-08-24T13:04:43.314Z,27.70
2022-08-24T13:07:30.724Z,27.68
2022-08-24T13:09:58.999Z,27.73
2022-08-24T13:12:41.406Z,27.84
2022-08-24T13:15:20.861Z,27.91
2022-08-24T13:18:21.635Z,27.88
2022-08-24T13:20:51.553Z,27.86
2022-08-24T13:23:22.773Z,27.87
2022-08-24T13:25:58.546Z,27.91
2022-08-24T13:28:29.817Z,27.95
2022-08-24T13:31:32.678Z,27.96
2022-08-24T13:34:24.986Z,28.03
2022-08-24T13:37:18.746Z,28.00
2022-08-24T13:40:00.849Z,27.90
2022-08-24T13:42:38.835Z,27.89
2022-08-24T13:45:16.433Z,27.94
2022-08-24T13:47:44.960Z,28.02
2022-08-24T13:50:38.303Z,28.09
2022-08-24T13:53:18.775Z,28.17
2022-08-24T13:55:52.053Z,28.21
2022-08-24T13:58:48.838Z,28.29
2022-08-24T14:01:59.650Z,28.30
2022-08-24T14:04:28.078Z,28.35
2022-08-24T14:07:08.569Z,28.39
2022-08-24T14:09:42.746Z,28.49
2022-08-24T14:12:22.117Z,28.49
2022-08-24T14:15:03.049Z,28.42
2022-08-24T14:17:54.099Z,28.43
2022-08-24T14:20:46.181Z,28.36
2022-08-24T14:23:39.645Z,28.32
2022-08-24T14:26:33.073Z,28.19
2022-08-24T14:29:19.776Z,28.11
2022-08-24T14:32:11.796Z,28.08
2022-08-24T14:35:18.820Z,28.06
2022-08-24T14:38:10.606Z,28.07
2022-08-24T14:41:12.493Z,28.15
2022-08-24T14:44:03.849Z,28.20
2022-08-24T14:47:06.934Z,28.24
2022-08-24T14:49:45.003Z,28.24
2022-08-24T14:52:35.445Z,28.26
2022-08-24T14:55:18.260Z,28.23
2022-08-24T14:58:08.181Z,28.26
2022-08-24T15:01:25.050Z,28.27
2022-08-24T15:04:06.503Z,28.29
2022-08-24T15:06:50.590Z,28.28
2022-08-24T15:09:38.001Z,28.28
2022-08-24T15:12:39.499Z,28.27
2022-08-24T15:15:23.823Z,28.28
2022-08-24T15:17:57.771Z,28.24
2022-08-24T15:21:09.020Z,28.24
2022-08-24T15:23:57.557Z,28.21
2022-08-24T15:27:03.474Z,28.16
2022-08-24T15:29:34.537Z,28.06
2022-08-24T15:32:22.415Z,27.98
2022-08-24T15:34:59.612Z,27.92
2022-08-24T15:37:38.437Z,27.86
2022-08-24T15:40:22.215Z,27.75
2022-08-24T15:42:51.407Z,27.67
2022-08-24T15:45:21.105Z,27.65
2022-08-24T15:47:53.169Z,27.62
2022-08-24T15:50:30.286Z,27.60
2022-08-24T15:53:08.083Z,27.55
2022-08-24T15:55:48.099Z,27.49
2022-08-24T15:58:37.610Z,27.46
2022-08-24T16:01:30.665Z,27.39
2022-08-24T16:04:11.631Z,27.37
2022-08-24T16:06:43.441Z,27.36
2022-08-24T16:09:20.824Z,27.36
2022-08-24T16:12:16.329Z,27.36
2022-08-24T16:14:48.557Z,27.31
2022-08-24T16:17:34.157Z,27.26
2022-08-24T16:20:07.965Z,27.17
2022-08-24T16:23:00.353Z,27.11
2022-08-24T16:25:42.937Z,27.07
2022-08-24T16:28:13.526Z,27.05
2022-08-24T16:30:51.826Z,26.99
2022-08-24T16:33:41.961Z,26.94
2022-08-24T16:36:16.530Z,26.92
2022-08-24T16:38:48.424Z,26.91
2022-08-24T16:41:22.988Z,26.88
2022-08-24T16:43:51.706Z,26.85
2022-08-24T16:46:24.084Z,26.81
2022-08-24T16:48:54.640Z,26.79
2022-08-24T16:51:24.594Z,26.77
2022-08-24T16:53:54.967Z,26.72
2022-08-24T16:56:23.308Z,26.67
2022-08-24T16:58:51.809Z,26.60
2022-08-24T17:01:20.342Z,26.56
2022-08-24T17:03:50.547Z,26.49
2022-08-24T17:06:19.657Z,26.43
2022-08-24T17:08:49.421Z,26.39
2022-08-24T17:11:19.450Z,26.35
2022-08-24T17:13:50.201Z,26.29
2022-08-24T17:16:21.252Z,26.23
2022-08-24T17:18:49.900Z,26.19
2022-08-24T17:21:18.502Z,26.15
2022-08-24T17:23:50.174Z,26.08
2022-08-24T17:26:21.494Z,26.03
2022-08-24T17:28:55.370Z,25.97
2022-08-24T17:31:29.073Z,25.93
2022-08-24T17:34:01.510Z,25.87
2022-08-24T17:36:32.470Z,25.83
2022-08-24T17:39:02.571Z,25.80
2022-08-24T17:41:31.881Z,25.77
2022-08-24T17:44:01.418Z,25.75
2022-08-24T17:46:31.652Z,25.73
2022-08-24T17:49:02.216Z,25.70
2022-08-24T17:51:30.965Z,25.68
2022-08-24T17:54:02.050Z,25.65
2022-08-24T17:56:37.703Z,25.60
2022-08-24T17:59:23.056Z,25.58
2022-08-24T18:01:54.967Z,25.54
2022-08-24T18:04:26.094Z,25.50
2022-08-24T18:06:56.486Z,25.47
2022-08-24T18:09:35.201Z,25.44
2022-08-24T18:12:08.342Z,25.43
2022-08-24T18:14:36.616Z,25.39
2022-08-24T18:17:08.792Z,25.37
2022-08-24T18:19:39.610Z,25.31
2022-08-24T18:22:07.971Z,25.26
2022-08-24T18:24:36.588Z,25.22
2022-08-24T18:27:10.275Z,25.17
2022-08-24T18:29:42.621Z,25.13
2022-08-24T18:32:12.445Z,25.08
2022-08-24T18:34:41.471Z,25.03
2022-08-24T18:37:10.098Z,24.98
2022-08-24T18:39:38.496Z,24.96
2022-08-24T18:42:09.056Z,24.92
2022-08-24T18:44:39.025Z,24.88
2022-08-24T18:47:08.872Z,24.83
2022-08-24T18:49:38.228Z,24.80
2022-08-24T18:52:09.809Z,24.74
2022-08-24T18:54:41.933Z,24.69
2022-08-24T18:57:10.979Z,24.67
2022-08-24T18:59:40.866Z,24.63
2022-08-24T19:02:36.009Z,24.57
2022-08-24T19:05:24.679Z,24.52
2022-08-24T19:07:55.803Z,24.48
2022-08-24T19:10:29.034Z,24.42
2022-08-24T19:13:03.683Z,24.38
2022-08-24T19:15:39.920Z,24.32
2022-08-24T19:18:13.404Z,24.26
2022-08-24T19:20:48.416Z,24.21
2022-08-24T19:23:27.923Z,24.13
2022-08-24T19:25:57.437Z,24.10
2022-08-24T19:28:27.117Z,24.03
2022-08-24T19:30:57.893Z,23.97
2022-08-24T19:33:34.490Z,23.93
2022-08-24T19:36:03.189Z,23.90
2022-08-24T19:38:31.859Z,23.85
2022-08-24T19:41:02.612Z,23.80
2022-08-24T19:44:01.585Z,23.75
2022-08-24T19:46:30.054Z,23.71
2022-08-24T19:48:58.638Z,23.66
2022-08-24T19:51:27.157Z,23.64
2022-08-24T19:53:55.527Z,23.61
2022-08-24T19:56:24.569Z,23.61
2022-08-24T19:59:00.883Z,23.57
2022-08-24T20:01:34.847Z,23.55
2022-08-24T20:04:07.041Z,23.52
2022-08-24T20:06:37.433Z,23.49
2022-08-24T20:09:08.743Z,23.44
2022-08-24T20:11:39.275Z,23.43
2022-08-24T20:14:07.681Z,23.40
2022-08-24T20:16:39.558Z,23.38
2022-08-24T20:19:11.320Z,23.35
2022-08-24T20:21:43.987Z,23.33
2022-08-24T20:24:12.962Z,23.32
2022-08-24T20:26:44.083Z,23.32
2022-08-24T20:29:13.382Z,23.29
2022-08-24T20:31:42.455Z,23.30
2022-08-24T20:34:10.949Z,23.29
2022-08-24T20:36:43.795Z,23.27
2022-08-24T20:39:14.058Z,23.27
2022-08-24T20:41:42.550Z,23.26
2022-08-24T20:44:11.755Z,23.24
2022-08-24T20:46:40.837Z,23.22
2022-08-24T20:49:17.035Z,23.20
2022-08-24T20:51:47.944Z,23.20
2022-08-24T20:54:16.547Z,23.20
2022-08-24T20:56:45.185Z,23.19
2022-08-24T20:59:15.082Z,23.19
2022-08-24T21:01:43.757Z,23.18
2022-08-24T21:04:18.346Z,23.16
2022-08-24T21:06:46.865Z,23.16
2022-08-24T21:09:19.110Z,23.14
2022-08-24T21:11:47.506Z,23.12
2022-08-24T21:14:15.882Z,23.10
2022-08-24T21:16:44.527Z,23.06
2022-08-24T21:19:17.961Z,23.05
2022-08-24T21:21:47.177Z,23.04
2022-08-24T21:24:16.485Z,23.02
2022-08-24T21:26:46.674Z,23.01
2022-08-24T21:29:16.660Z,23.00
2022-08-24T21:32:05.065Z,22.96
2022-08-24T21:34:43.272Z,22.93
2022-08-24T21:37:15.179Z,22.89
2022-08-24T21:39:47.427Z,22.86
2022-08-24T21:42:17.577Z,22.85
2022-08-24T21:44:48.510Z,22.83
2022-08-24T21:47:17.486Z,22.81
2022-08-24T21:49:46.563Z,22.79
2022-08-24T21:52:15.569Z,22.75
2022-08-24T21:54:46.052Z,22.71
2022-08-24T21:57:15.805Z,22.70
2022-08-24T21:59:44.445Z,22.69
2022-08-24T22:02:13.435Z,22.69
2022-08-24T22:04:56.233Z,22.69
2022-08-24T22:07:25.239Z,22.70
2022-08-24T22:09:56.131Z,22.72
2022-08-24T22:12:24.676Z,22.77
2022-08-24T22:14:54.834Z,22.80
2022-08-24T22:17:23.240Z,22.81
2022-08-24T22:19:51.699Z,22.83
2022-08-24T22:22:20.074Z,22.87
2022-08-24T22:24:48.375Z,22.93
2022-08-24T22:27:17.053Z,22.95
2022-08-24T22:29:51.941Z,22.96
2022-08-24T22:32:20.922Z,22.96
2022-08-24T22:34:49.256Z,22.97
2022-08-24T22:37:18.677Z,22.96
2022-08-24T22:39:47.081Z,22.94
2022-08-24T22:42:15.541Z,22.92
2022-08-24T22:44:43.950Z,22.89
2022-08-24T22:47:15.018Z,22.85
2022-08-24T22:49:44.290Z,22.82
2022-08-24T22:52:14.337Z,22.80
2022-08-24T22:54:47.626Z,22.77
2022-08-24T22:57:19.915Z,22.75
2022-08-24T22:59:48.604Z,22.72
2022-08-24T23:02:19.762Z,22.69
2022-08-24T23:04:51.131Z,22.67
2022-08-24T23:07:21.205Z,22.64
2022-08-24T23:09:49.692Z,22.61
2022-08-24T23:12:22.453Z,22.56
2022-08-24T23:14:52.249Z,22.53
2022-08-24T23:17:22.059Z,22.49
2022-08-24T23:20:06.423Z,22.50
2022-08-24T23:22:38.790Z,22.47
2022-08-24T23:25:09.930Z,22.45
2022-08-24T23:27:39.074Z,22.43
2022-08-24T23:30:10.789Z,22.44
2022-08-24T23:32:39.685Z,22.43
2022-08-24T23:35:08.433Z,22.40
2022-08-24T23:37:36.837Z,22.43
2022-08-24T23:40:05.844Z,22.43
2022-08-24T23:42:34.231Z,22.43
2022-08-24T23:45:03.589Z,22.46
2022-08-24T23:47:35.898Z,22.46
2022-08-24T23:50:10.688Z,22.47
2022-08-24T23:52:40.999Z,22.48
2022-08-24T23:55:21.347Z,22.47
2022-08-24T23:57:53.554Z,22.47
